sensor_id;sensor_type;location;lat;lon;timestamp;pressure;altitude;pressure_sealevel;temperature;humidity
52249;BME280;38541;48.130;8.378;2022-09-21T00:01:05;93400.47;;;7.89;70.80
52249;BME280;38541;48.130;8.378;2022-09-21T00:03:33;93402.88;;;7.90;70.68
52249;BME280;38541;48.130;8.378;2022-09-21T00:06:07;93409.81;;;7.84;70.59
52249;BME280;38541;48.130;8.378;2022-09-21T00:08:34;93402.66;;;7.80;70.36
52249;BME280;38541;48.130;8.378;2022-09-21T00:11:01;93409.16;;;7.77;70.49
52249;BME280;38541;48.130;8.378;2022-09-21T00:13:29;93403.78;;;7.72;70.42
52249;BME280;38541;48.130;8.378;2022-09-21T00:15:58;93408.09;;;7.66;70.66
52249;BME280;38541;48.130;8.378;2022-09-21T00:18:25;93405.38;;;7.61;70.48
52249;BME280;38541;48.130;8.378;2022-09-21T00:20:52;93407.41;;;7.59;70.44
52249;BME280;38541;48.130;8.378;2022-09-21T00:23:19;93406.84;;;7.57;70.73
52249;BME280;38541;48.130;8.378;2022-09-21T00:25:45;93409.00;;;7.60;71.53
52249;BME280;38541;48.130;8.378;2022-09-21T00:28:12;93409.34;;;7.52;70.76
52249;BME280;38541;48.130;8.378;2022-09-21T00:30:38;93404.81;;;7.47;70.62
52249;BME280;38541;48.130;8.378;2022-09-21T00:33:05;93398.09;;;7.39;70.29
52249;BME280;38541;48.130;8.378;2022-09-21T00:35:32;93405.66;;;7.29;69.92
52249;BME280;38541;48.130;8.378;2022-09-21T00:38:00;93401.13;;;7.24;70.01
52249;BME280;38541;48.130;8.378;2022-09-21T00:40:28;93397.59;;;7.19;70.42
52249;BME280;38541;48.130;8.378;2022-09-21T00:43:10;93405.88;;;7.16;70.36
52249;BME280;38541;48.130;8.378;2022-09-21T00:45:37;93408.94;;;7.12;70.39
52249;BME280;38541;48.130;8.378;2022-09-21T00:48:04;93404.16;;;7.09;70.80
52249;BME280;38541;48.130;8.378;2022-09-21T00:50:31;93398.91;;;7.09;70.73
52249;BME280;38541;48.130;8.378;2022-09-21T00:52:58;93405.84;;;7.04;70.97
52249;BME280;38541;48.130;8.378;2022-09-21T00:55:33;93402.31;;;6.98;70.88
52249;BME280;38541;48.130;8.378;2022-09-21T00:58:08;93403.22;;;6.92;70.79
52249;BME280;38541;48.130;8.378;2022-09-21T01:00:36;93397.19;;;6.91;71.30
52249;BME280;38541;48.130;8.378;2022-09-21T01:03:03;93402.53;;;6.96;71.74
52249;BME280;38541;48.130;8.378;2022-09-21T01:05:30;93394.34;;;6.93;71.07
52249;BME280;38541;48.130;8.378;2022-09-21T01:07:59;93393.19;;;6.89;71.01
52249;BME280;38541;48.130;8.378;2022-09-21T01:10:30;93392.50;;;6.81;71.33
52249;BME280;38541;48.130;8.378;2022-09-21T01:13:08;93386.13;;;6.77;71.81
52249;BME280;38541;48.130;8.378;2022-09-21T01:18:34;93394.16;;;6.76;72.12
52249;BME280;38541;48.130;8.378;2022-09-21T01:21:16;93385.56;;;6.75;71.56
52249;BME280;38541;48.130;8.378;2022-09-21T01:24:15;93386.56;;;6.74;71.72
52249;BME280;38541;48.130;8.378;2022-09-21T01:27:30;93387.88;;;6.65;71.64
52249;BME280;38541;48.130;8.378;2022-09-21T01:30:11;93383.91;;;6.62;71.53
52249;BME280;38541;48.130;8.378;2022-09-21T01:32:43;93391.97;;;6.61;71.94
52249;BME280;38541;48.130;8.378;2022-09-21T01:35:17;93383.56;;;6.59;72.32
52249;BME280;38541;48.130;8.378;2022-09-21T01:37:47;93392.03;;;6.54;72.08
52249;BME280;38541;48.130;8.378;2022-09-21T01:40:23;93387.28;;;6.51;72.36
52249;BME280;38541;48.130;8.378;2022-09-21T01:42:53;93391.91;;;6.49;71.71
52249;BME280;38541;48.130;8.378;2022-09-21T01:45:27;93388.56;;;6.41;72.08
52249;BME280;38541;48.130;8.378;2022-09-21T01:47:58;93398.81;;;6.43;72.67
52249;BME280;38541;48.130;8.378;2022-09-21T01:50:29;93398.00;;;6.42;71.62
52249;BME280;38541;48.130;8.378;2022-09-21T01:53:02;93397.50;;;6.34;71.04
52249;BME280;38541;48.130;8.378;2022-09-21T01:55:35;93402.00;;;6.26;70.93
52249;BME280;38541;48.130;8.378;2022-09-21T01:58:22;93398.25;;;6.22;70.70
52249;BME280;38541;48.130;8.378;2022-09-21T02:00:54;93396.94;;;6.13;70.79
52249;BME280;38541;48.130;8.378;2022-09-21T02:03:28;93402.22;;;6.06;71.02
52249;BME280;38541;48.130;8.378;2022-09-21T02:10:16;93400.31;;;5.95;71.16
52249;BME280;38541;48.130;8.378;2022-09-21T02:12:46;93393.56;;;5.87;71.35
52249;BME280;38541;48.130;8.378;2022-09-21T02:15:13;93391.59;;;5.82;71.95
52249;BME280;38541;48.130;8.378;2022-09-21T02:17:46;93398.47;;;5.77;72.02
52249;BME280;38541;48.130;8.378;2022-09-21T02:20:29;93388.91;;;5.70;71.26
52249;BME280;38541;48.130;8.378;2022-09-21T02:23:12;93389.19;;;5.62;71.42
52249;BME280;38541;48.130;8.378;2022-09-21T02:26:07;93389.63;;;5.59;71.18
52249;BME280;38541;48.130;8.378;2022-09-21T02:31:40;93389.84;;;5.57;71.50
52249;BME280;38541;48.130;8.378;2022-09-21T02:34:27;93385.53;;;5.45;70.90
52249;BME280;38541;48.130;8.378;2022-09-21T02:37:09;93389.59;;;5.40;70.98
52249;BME280;38541;48.130;8.378;2022-09-21T02:39:46;93388.41;;;5.36;71.36
52249;BME280;38541;48.130;8.378;2022-09-21T02:42:18;93386.03;;;5.35;71.38
52249;BME280;38541;48.130;8.378;2022-09-21T02:44:56;93383.25;;;5.29;71.68
52249;BME280;38541;48.130;8.378;2022-09-21T02:47:37;93388.44;;;5.29;71.08
52249;BME280;38541;48.130;8.378;2022-09-21T02:50:11;93378.25;;;5.28;71.57
52249;BME280;38541;48.130;8.378;2022-09-21T02:52:41;93378.50;;;5.20;71.24
52249;BME280;38541;48.130;8.378;2022-09-21T02:55:10;93381.53;;;5.17;71.20
52249;BME280;38541;48.130;8.378;2022-09-21T02:57:38;93380.53;;;5.18;71.39
52249;BME280;38541;48.130;8.378;2022-09-21T03:00:05;93380.56;;;5.11;70.65
52249;BME280;38541;48.130;8.378;2022-09-21T03:02:39;93380.25;;;5.00;71.05
52249;BME280;38541;48.130;8.378;2022-09-21T03:05:06;93375.69;;;4.96;71.18
52249;BME280;38541;48.130;8.378;2022-09-21T03:07:33;93377.84;;;4.99;71.13
52249;BME280;38541;48.130;8.378;2022-09-21T03:10:00;93374.66;;;4.97;71.45
52249;BME280;38541;48.130;8.378;2022-09-21T03:12:27;93374.09;;;4.95;71.39
52249;BME280;38541;48.130;8.378;2022-09-21T03:14:54;93371.75;;;4.87;71.58
52249;BME280;38541;48.130;8.378;2022-09-21T03:17:21;93370.75;;;4.88;71.60
52249;BME280;38541;48.130;8.378;2022-09-21T03:19:47;93367.94;;;4.82;71.43
52249;BME280;38541;48.130;8.378;2022-09-21T03:22:14;93371.63;;;4.75;71.47
52249;BME280;38541;48.130;8.378;2022-09-21T03:24:42;93371.63;;;4.75;71.42
52249;BME280;38541;48.130;8.378;2022-09-21T03:27:12;93372.84;;;4.72;71.75
52249;BME280;38541;48.130;8.378;2022-09-21T03:29:39;93378.47;;;4.69;72.02
52249;BME280;38541;48.130;8.378;2022-09-21T03:32:06;93377.63;;;4.75;73.09
52249;BME280;38541;48.130;8.378;2022-09-21T03:34:33;93378.00;;;4.79;73.14
52249;BME280;38541;48.130;8.378;2022-09-21T03:37:01;93389.63;;;4.76;73.10
52249;BME280;38541;48.130;8.378;2022-09-21T03:39:27;93384.84;;;4.73;73.64
52249;BME280;38541;48.130;8.378;2022-09-21T03:41:54;93391.25;;;4.70;73.25
52249;BME280;38541;48.130;8.378;2022-09-21T03:44:23;93393.50;;;4.67;72.41
52249;BME280;38541;48.130;8.378;2022-09-21T03:46:50;93392.91;;;4.65;72.64
52249;BME280;38541;48.130;8.378;2022-09-21T03:49:16;93389.09;;;4.61;71.67
52249;BME280;38541;48.130;8.378;2022-09-21T03:51:43;93393.56;;;4.53;71.94
52249;BME280;38541;48.130;8.378;2022-09-21T03:54:10;93387.78;;;4.51;71.78
52249;BME280;38541;48.130;8.378;2022-09-21T03:56:36;93391.78;;;4.47;71.44
52249;BME280;38541;48.130;8.378;2022-09-21T03:59:03;93393.78;;;4.45;71.26
52249;BME280;38541;48.130;8.378;2022-09-21T04:01:29;93387.03;;;4.37;71.06
52249;BME280;38541;48.130;8.378;2022-09-21T04:03:56;93389.25;;;4.34;70.89
52249;BME280;38541;48.130;8.378;2022-09-21T04:06:23;93390.66;;;4.30;71.02
52249;BME280;38541;48.130;8.378;2022-09-21T04:08:50;93395.88;;;4.30;71.25
52249;BME280;38541;48.130;8.378;2022-09-21T04:11:18;93382.31;;;4.21;71.35
52249;BME280;38541;48.130;8.378;2022-09-21T04:13:49;93387.91;;;4.18;71.58
52249;BME280;38541;48.130;8.378;2022-09-21T04:16:17;93389.13;;;4.15;71.09
52249;BME280;38541;48.130;8.378;2022-09-21T04:18:43;93389.53;;;4.12;71.36
52249;BME280;38541;48.130;8.378;2022-09-21T04:21:10;93392.72;;;4.14;71.51
52249;BME280;38541;48.130;8.378;2022-09-21T04:23:36;93393.16;;;4.11;71.71
52249;BME280;38541;48.130;8.378;2022-09-21T04:26:03;93387.97;;;4.04;70.92
52249;BME280;38541;48.130;8.378;2022-09-21T04:28:29;93390.38;;;3.99;71.04
52249;BME280;38541;48.130;8.378;2022-09-21T04:30:57;93396.38;;;3.99;71.77
52249;BME280;38541;48.130;8.378;2022-09-21T04:33:24;93388.56;;;3.99;71.53
52249;BME280;38541;48.130;8.378;2022-09-21T04:35:54;93390.56;;;3.97;70.80
52249;BME280;38541;48.130;8.378;2022-09-21T04:38:21;93395.19;;;3.95;71.33
52249;BME280;38541;48.130;8.378;2022-09-21T04:40:57;93387.38;;;3.95;72.06
52249;BME280;38541;48.130;8.378;2022-09-21T04:43:24;93397.78;;;3.95;72.47
52249;BME280;38541;48.130;8.378;2022-09-21T04:45:51;93394.19;;;3.96;72.04
52249;BME280;38541;48.130;8.378;2022-09-21T04:48:17;93387.22;;;3.90;71.79
52249;BME280;38541;48.130;8.378;2022-09-21T04:50:47;93403.41;;;3.79;71.40
52249;BME280;38541;48.130;8.378;2022-09-21T04:53:14;93402.81;;;3.77;71.48
52249;BME280;38541;48.130;8.378;2022-09-21T04:55:40;93402.41;;;3.73;71.60
52249;BME280;38541;48.130;8.378;2022-09-21T04:58:07;93400.22;;;3.70;71.44
52249;BME280;38541;48.130;8.378;2022-09-21T05:00:33;93401.25;;;3.69;71.74
52249;BME280;38541;48.130;8.378;2022-09-21T05:03:00;93399.47;;;3.63;72.06
52249;BME280;38541;48.130;8.378;2022-09-21T05:05:26;93402.25;;;3.68;71.89
52249;BME280;38541;48.130;8.378;2022-09-21T05:07:52;93405.25;;;3.71;72.89
52249;BME280;38541;48.130;8.378;2022-09-21T05:10:19;93402.41;;;3.73;73.88
52249;BME280;38541;48.130;8.378;2022-09-21T05:12:46;93412.22;;;3.71;74.41
52249;BME280;38541;48.130;8.378;2022-09-21T05:15:12;93413.63;;;3.74;74.33
52249;BME280;38541;48.130;8.378;2022-09-21T05:17:39;93406.44;;;3.76;73.93
52249;BME280;38541;48.130;8.378;2022-09-21T05:20:06;93411.41;;;3.77;73.71
52249;BME280;38541;48.130;8.378;2022-09-21T05:22:33;93411.22;;;3.72;73.57
52249;BME280;38541;48.130;8.378;2022-09-21T05:24:59;93411.63;;;3.76;73.30
52249;BME280;38541;48.130;8.378;2022-09-21T05:27:26;93411.22;;;3.72;73.31
52249;BME280;38541;48.130;8.378;2022-09-21T05:29:52;93418.81;;;3.74;72.42
52249;BME280;38541;48.130;8.378;2022-09-21T05:32:27;93413.41;;;3.68;72.29
52249;BME280;38541;48.130;8.378;2022-09-21T05:35:37;93417.00;;;3.67;72.24
52249;BME280;38541;48.130;8.378;2022-09-21T05:38:18;93417.63;;;3.69;72.53
52249;BME280;38541;48.130;8.378;2022-09-21T05:40:44;93420.22;;;3.69;72.58
52249;BME280;38541;48.130;8.378;2022-09-21T05:43:16;93419.63;;;3.67;72.51
52249;BME280;38541;48.130;8.378;2022-09-21T05:45:51;93417.22;;;3.73;72.77
52249;BME280;38541;48.130;8.378;2022-09-21T05:48:39;93418.41;;;3.70;72.92
52249;BME280;38541;48.130;8.378;2022-09-21T05:51:31;93415.00;;;3.69;72.92
52249;BME280;38541;48.130;8.378;2022-09-21T05:54:16;93418.03;;;3.66;73.37
52249;BME280;38541;48.130;8.378;2022-09-21T05:56:55;93414.41;;;3.67;73.18
52249;BME280;38541;48.130;8.378;2022-09-21T06:05:10;93419.03;;;3.72;74.25
52249;BME280;38541;48.130;8.378;2022-09-21T06:07:36;93416.63;;;3.70;74.07
52249;BME280;38541;48.130;8.378;2022-09-21T06:10:03;93425.22;;;3.71;74.44
52249;BME280;38541;48.130;8.378;2022-09-21T06:12:30;93423.44;;;3.71;75.30
52249;BME280;38541;48.130;8.378;2022-09-21T06:14:56;93425.41;;;3.76;74.46
52249;BME280;38541;48.130;8.378;2022-09-21T06:17:23;93423.03;;;3.75;74.77
52249;BME280;38541;48.130;8.378;2022-09-21T06:19:53;93429.59;;;3.84;74.96
52249;BME280;38541;48.130;8.378;2022-09-21T06:22:19;93420.00;;;3.91;75.05
52249;BME280;38541;48.130;8.378;2022-09-21T06:24:45;93421.56;;;3.99;74.73
52249;BME280;38541;48.130;8.378;2022-09-21T06:27:12;93427.16;;;4.03;75.05
52249;BME280;38541;48.130;8.378;2022-09-21T06:29:38;93425.94;;;4.12;74.86
52249;BME280;38541;48.130;8.378;2022-09-21T06:32:05;93425.53;;;4.15;74.67
52249;BME280;38541;48.130;8.378;2022-09-21T06:34:31;93433.09;;;4.17;74.75
52249;BME280;38541;48.130;8.378;2022-09-21T06:36:57;93429.31;;;4.19;74.56
52249;BME280;38541;48.130;8.378;2022-09-21T06:39:24;93432.69;;;4.26;74.47
52249;BME280;38541;48.130;8.378;2022-09-21T06:41:51;93432.88;;;4.32;75.06
52249;BME280;38541;48.130;8.378;2022-09-21T06:44:17;93433.06;;;4.37;75.12
52249;BME280;38541;48.130;8.378;2022-09-21T06:46:44;93434.44;;;4.46;75.43
52249;BME280;38541;48.130;8.378;2022-09-21T06:49:10;93437.78;;;4.53;75.26
52249;BME280;38541;48.130;8.378;2022-09-21T06:51:37;93434.56;;;4.65;75.63
52249;BME280;38541;48.130;8.378;2022-09-21T06:54:03;93439.34;;;4.68;75.23
52249;BME280;38541;48.130;8.378;2022-09-21T06:56:30;93437.06;;;4.78;75.19
52249;BME280;38541;48.130;8.378;2022-09-21T06:58:57;93439.25;;;4.81;75.29
52249;BME280;38541;48.130;8.378;2022-09-21T07:01:24;93440.63;;;4.91;75.33
52249;BME280;38541;48.130;8.378;2022-09-21T07:03:51;93435.16;;;4.99;75.67
52249;BME280;38541;48.130;8.378;2022-09-21T07:06:17;93430.13;;;5.04;75.90
52249;BME280;38541;48.130;8.378;2022-09-21T07:08:44;93435.66;;;5.14;76.03
52249;BME280;38541;48.130;8.378;2022-09-21T07:11:31;93441.78;;;5.27;76.57
52249;BME280;38541;48.130;8.378;2022-09-21T07:13:57;93438.09;;;5.41;76.83
52249;BME280;38541;48.130;8.378;2022-09-21T07:16:24;93437.63;;;5.51;77.60
52249;BME280;38541;48.130;8.378;2022-09-21T07:18:50;93439.31;;;5.64;78.16
52249;BME280;38541;48.130;8.378;2022-09-21T07:21:17;93439.41;;;5.76;78.41
52249;BME280;38541;48.130;8.378;2022-09-21T07:23:43;93437.31;;;5.85;78.74
52249;BME280;38541;48.130;8.378;2022-09-21T07:26:12;93438.59;;;6.01;78.12
52249;BME280;38541;48.130;8.378;2022-09-21T07:28:38;93443.31;;;6.11;77.49
52249;BME280;38541;48.130;8.378;2022-09-21T07:31:13;93441.59;;;6.23;77.45
52249;BME280;38541;48.130;8.378;2022-09-21T07:33:44;93446.88;;;6.35;77.09
52249;BME280;38541;48.130;8.378;2022-09-21T07:36:13;93446.38;;;6.45;77.08
52249;BME280;38541;48.130;8.378;2022-09-21T07:38:43;93446.66;;;6.55;76.45
52249;BME280;38541;48.130;8.378;2022-09-21T07:41:10;93441.69;;;6.66;76.03
52249;BME280;38541;48.130;8.378;2022-09-21T07:43:37;93440.41;;;6.75;75.57
52249;BME280;38541;48.130;8.378;2022-09-21T07:46:10;93442.69;;;6.83;75.36
52249;BME280;38541;48.130;8.378;2022-09-21T07:48:37;93432.94;;;6.91;74.66
52249;BME280;38541;48.130;8.378;2022-09-21T07:51:06;93440.47;;;6.99;74.22
52249;BME280;38541;48.130;8.378;2022-09-21T07:53:37;93432.31;;;7.07;73.97
52249;BME280;38541;48.130;8.378;2022-09-21T07:56:08;93440.31;;;7.12;73.48
52249;BME280;38541;48.130;8.378;2022-09-21T07:58:36;93432.13;;;7.21;72.90
52249;BME280;38541;48.130;8.378;2022-09-21T08:01:22;93432.41;;;7.31;72.67
52249;BME280;38541;48.130;8.378;2022-09-21T08:03:50;93430.69;;;7.37;72.83
52249;BME280;38541;48.130;8.378;2022-09-21T08:06:17;93437.41;;;7.45;72.75
52249;BME280;38541;48.130;8.378;2022-09-21T08:08:45;93427.09;;;7.50;72.45
52249;BME280;38541;48.130;8.378;2022-09-21T08:11:15;93429.38;;;7.58;72.33
52249;BME280;38541;48.130;8.378;2022-09-21T08:13:42;93432.91;;;7.64;71.68
52249;BME280;38541;48.130;8.378;2022-09-21T08:16:09;93433.81;;;7.69;72.13
52249;BME280;38541;48.130;8.378;2022-09-21T08:18:37;93435.41;;;7.70;71.75
52249;BME280;38541;48.130;8.378;2022-09-21T08:21:05;93437.69;;;7.79;71.05
52249;BME280;38541;48.130;8.378;2022-09-21T08:23:32;93438.03;;;7.82;71.05
52249;BME280;38541;48.130;8.378;2022-09-21T08:26:00;93435.06;;;7.79;71.24
52249;BME280;38541;48.130;8.378;2022-09-21T08:28:28;93437.22;;;7.82;71.77
52249;BME280;38541;48.130;8.378;2022-09-21T08:31:00;93433.34;;;7.96;71.37
52249;BME280;38541;48.130;8.378;2022-09-21T08:33:28;93437.25;;;8.06;71.19
52249;BME280;38541;48.130;8.378;2022-09-21T08:35:57;93435.38;;;8.18;70.92
52249;BME280;38541;48.130;8.378;2022-09-21T08:38:25;93438.09;;;8.23;70.14
52249;BME280;38541;48.130;8.378;2022-09-21T08:40:52;93434.03;;;8.27;69.89
52249;BME280;38541;48.130;8.378;2022-09-21T08:45:58;93434.56;;;8.41;69.59
52249;BME280;38541;48.130;8.378;2022-09-21T08:48:29;93438.31;;;8.46;69.71
52249;BME280;38541;48.130;8.378;2022-09-21T08:51:05;93428.09;;;8.56;69.59
52249;BME280;38541;48.130;8.378;2022-09-21T08:53:38;93437.41;;;8.64;69.04
52249;BME280;38541;48.130;8.378;2022-09-21T08:56:10;93439.31;;;8.68;68.88
52249;BME280;38541;48.130;8.378;2022-09-21T08:58:38;93436.34;;;8.77;69.44
52249;BME280;38541;48.130;8.378;2022-09-21T09:01:29;93434.34;;;8.84;67.92
52249;BME280;38541;48.130;8.378;2022-09-21T09:07:16;93432.84;;;8.88;67.01
52249;BME280;38541;48.130;8.378;2022-09-21T09:09:57;93434.78;;;8.93;67.20
52249;BME280;38541;48.130;8.378;2022-09-21T09:15:52;93435.06;;;9.08;66.66
52249;BME280;38541;48.130;8.378;2022-09-21T09:18:45;93428.47;;;9.06;66.34
52249;BME280;38541;48.130;8.378;2022-09-21T09:21:22;93426.97;;;9.10;66.22
52249;BME280;38541;48.130;8.378;2022-09-21T09:26:59;93428.81;;;9.26;65.41
52249;BME280;38541;48.130;8.378;2022-09-21T09:29:32;93421.91;;;9.37;66.09
52249;BME280;38541;48.130;8.378;2022-09-21T09:32:02;93419.47;;;9.48;65.36
52249;BME280;38541;48.130;8.378;2022-09-21T09:34:34;93428.38;;;9.64;65.39
52249;BME280;38541;48.130;8.378;2022-09-21T09:37:14;93414.31;;;9.70;63.92
52249;BME280;38541;48.130;8.378;2022-09-21T09:39:42;93415.31;;;9.86;64.55
52249;BME280;38541;48.130;8.378;2022-09-21T09:42:36;93419.53;;;9.87;64.79
52249;BME280;38541;48.130;8.378;2022-09-21T09:45:08;93420.25;;;9.99;63.88
52249;BME280;38541;48.130;8.378;2022-09-21T09:47:54;93421.97;;;10.11;63.71
52249;BME280;38541;48.130;8.378;2022-09-21T09:50:27;93410.78;;;10.21;63.25
52249;BME280;38541;48.130;8.378;2022-09-21T09:53:05;93416.38;;;10.24;63.58
52249;BME280;38541;48.130;8.378;2022-09-21T09:55:37;93417.34;;;10.18;62.40
52249;BME280;38541;48.130;8.378;2022-09-21T09:58:08;93408.53;;;10.30;62.73
52249;BME280;38541;48.130;8.378;2022-09-21T10:00:41;93411.91;;;10.42;62.73
52249;BME280;38541;48.130;8.378;2022-09-21T10:03:15;93413.63;;;10.53;61.89
52249;BME280;38541;48.130;8.378;2022-09-21T10:05:43;93409.38;;;10.75;62.66
52249;BME280;38541;48.130;8.378;2022-09-21T10:08:27;93412.06;;;10.80;61.73
52249;BME280;38541;48.130;8.378;2022-09-21T10:10:54;93409.41;;;11.02;62.21
52249;BME280;38541;48.130;8.378;2022-09-21T10:13:28;93398.09;;;11.29;58.89
52249;BME280;38541;48.130;8.378;2022-09-21T10:15:58;93392.41;;;11.42;58.88
52249;BME280;38541;48.130;8.378;2022-09-21T10:18:32;93396.63;;;11.76;58.91
52249;BME280;38541;48.130;8.378;2022-09-21T10:23:46;93384.78;;;12.17;58.56
52249;BME280;38541;48.130;8.378;2022-09-21T10:26:15;93387.72;;;12.25;56.11
52249;BME280;38541;48.130;8.378;2022-09-21T10:31:22;93382.63;;;12.67;57.95
52249;BME280;38541;48.130;8.378;2022-09-21T10:34:05;93378.47;;;12.81;55.84
52249;BME280;38541;48.130;8.378;2022-09-21T10:36:34;93383.81;;;12.33;56.27
52249;BME280;38541;48.130;8.378;2022-09-21T10:39:17;93371.69;;;12.32;55.24
52249;BME280;38541;48.130;8.378;2022-09-21T10:44:41;93370.78;;;12.06;57.07
52249;BME280;38541;48.130;8.378;2022-09-21T10:49:47;93370.00;;;12.79;56.16
52249;BME280;38541;48.130;8.378;2022-09-21T10:52:16;93374.78;;;12.19;54.43
52249;BME280;38541;48.130;8.378;2022-09-21T10:54:48;93370.56;;;12.18;57.13
52249;BME280;38541;48.130;8.378;2022-09-21T10:57:19;93381.19;;;12.38;56.21
52249;BME280;38541;48.130;8.378;2022-09-21T10:59:47;93376.16;;;12.32;56.60
52249;BME280;38541;48.130;8.378;2022-09-21T11:02:30;93371.41;;;12.29;55.77
52249;BME280;38541;48.130;8.378;2022-09-21T11:05:20;93367.88;;;12.71;55.14
52249;BME280;38541;48.130;8.378;2022-09-21T11:07:53;93362.69;;;13.23;56.80
52249;BME280;38541;48.130;8.378;2022-09-21T11:10:29;93369.06;;;13.48;52.92
52249;BME280;38541;48.130;8.378;2022-09-21T11:14:06;93362.72;;;13.49;54.10
52249;BME280;38541;48.130;8.378;2022-09-21T11:19:04;93359.00;;;13.29;53.68
52249;BME280;38541;48.130;8.378;2022-09-21T11:21:54;93361.09;;;13.32;51.93
52249;BME280;38541;48.130;8.378;2022-09-21T11:24:44;93359.53;;;13.31;51.62
52249;BME280;38541;48.130;8.378;2022-09-21T11:27:20;93351.09;;;13.19;51.88
52249;BME280;38541;48.130;8.378;2022-09-21T11:33:01;93346.88;;;13.23;54.04
52249;BME280;38541;48.130;8.378;2022-09-21T11:41:37;93344.22;;;13.69;52.30
52249;BME280;38541;48.130;8.378;2022-09-21T11:49:55;93334.47;;;13.70;51.82
52249;BME280;38541;48.130;8.378;2022-09-21T11:58:20;93332.06;;;13.89;50.88
52249;BME280;38541;48.130;8.378;2022-09-21T12:00:59;93334.72;;;13.32;51.76
52249;BME280;38541;48.130;8.378;2022-09-21T12:03:43;93334.72;;;13.79;51.21
52249;BME280;38541;48.130;8.378;2022-09-21T12:06:34;93331.47;;;14.13;49.91
52249;BME280;38541;48.130;8.378;2022-09-21T12:17:52;93326.34;;;14.37;51.35
52249;BME280;38541;48.130;8.378;2022-09-21T12:20:50;93323.00;;;14.82;50.70
52249;BME280;38541;48.130;8.378;2022-09-21T12:23:20;93316.16;;;15.16;47.89
52249;BME280;38541;48.130;8.378;2022-09-21T12:25:51;93322.69;;;15.29;48.67
52249;BME280;38541;48.130;8.378;2022-09-21T12:28:26;93319.31;;;15.52;47.83
52249;BME280;38541;48.130;8.378;2022-09-21T12:30:58;93321.97;;;15.52;46.68
52249;BME280;38541;48.130;8.378;2022-09-21T12:33:42;93322.25;;;14.76;46.46
52249;BME280;38541;48.130;8.378;2022-09-21T12:36:17;93317.53;;;15.08;47.23
52249;BME280;38541;48.130;8.378;2022-09-21T12:38:57;93310.13;;;15.45;45.46
52249;BME280;38541;48.130;8.378;2022-09-21T12:44:42;93306.41;;;16.05;46.36
52249;BME280;38541;48.130;8.378;2022-09-21T12:47:36;93312.16;;;15.82;45.88
52249;BME280;38541;48.130;8.378;2022-09-21T12:52:42;93308.13;;;15.31;47.50
52249;BME280;38541;48.130;8.378;2022-09-21T12:55:39;93295.53;;;15.77;45.44
52249;BME280;38541;48.130;8.378;2022-09-21T12:58:20;93300.81;;;15.77;44.31
52249;BME280;38541;48.130;8.378;2022-09-21T13:01:00;93296.47;;;15.91;43.03
52249;BME280;38541;48.130;8.378;2022-09-21T13:03:41;93285.97;;;16.30;41.29
52249;BME280;38541;48.130;8.378;2022-09-21T13:06:47;93294.66;;;16.54;41.13
52249;BME280;38541;48.130;8.378;2022-09-21T13:09:19;93293.41;;;16.28;42.29
52249;BME280;38541;48.130;8.378;2022-09-21T13:11:52;93292.66;;;16.03;42.86
52249;BME280;38541;48.130;8.378;2022-09-21T13:14:28;93298.75;;;16.47;43.88
52249;BME280;38541;48.130;8.378;2022-09-21T13:16:57;93302.56;;;16.79;44.26
52249;BME280;38541;48.130;8.378;2022-09-21T13:19:28;93286.25;;;17.10;42.38
52249;BME280;38541;48.130;8.378;2022-09-21T13:22:11;93295.97;;;17.34;41.48
52249;BME280;38541;48.130;8.378;2022-09-21T13:24:42;93287.53;;;16.93;42.53
52249;BME280;38541;48.130;8.378;2022-09-21T13:27:10;93286.88;;;16.82;41.34
52249;BME280;38541;48.130;8.378;2022-09-21T13:29:39;93291.25;;;16.73;41.98
52249;BME280;38541;48.130;8.378;2022-09-21T13:34:38;93287.19;;;17.00;43.32
52249;BME280;38541;48.130;8.378;2022-09-21T13:47:51;93279.66;;;16.25;40.88
52249;BME280;38541;48.130;8.378;2022-09-21T13:50:30;93278.31;;;16.66;42.04
52249;BME280;38541;48.130;8.378;2022-09-21T13:53:01;93273.34;;;17.36;41.60
52249;BME280;38541;48.130;8.378;2022-09-21T13:55:39;93288.28;;;17.65;41.75
52249;BME280;38541;48.130;8.378;2022-09-21T13:58:24;93276.56;;;17.66;41.63
52249;BME280;38541;48.130;8.378;2022-09-21T14:03:36;93283.78;;;16.13;40.59
52249;BME280;38541;48.130;8.378;2022-09-21T14:06:10;93274.59;;;16.67;42.27
52249;BME280;38541;48.130;8.378;2022-09-21T14:08:39;93275.91;;;17.42;41.58
52249;BME280;38541;48.130;8.378;2022-09-21T14:11:36;93274.59;;;17.58;39.10
52249;BME280;38541;48.130;8.378;2022-09-21T14:14:14;93267.91;;;17.28;39.99
52249;BME280;38541;48.130;8.378;2022-09-21T14:24:48;93277.13;;;17.49;42.08
52249;BME280;38541;48.130;8.378;2022-09-21T14:27:26;93272.16;;;17.76;41.09
52249;BME280;38541;48.130;8.378;2022-09-21T14:30:22;93267.94;;;17.08;40.55
52249;BME280;38541;48.130;8.378;2022-09-21T14:33:11;93274.88;;;16.47;41.95
52249;BME280;38541;48.130;8.378;2022-09-21T14:35:42;93276.91;;;16.11;43.77
52249;BME280;38541;48.130;8.378;2022-09-21T14:38:21;93273.03;;;16.04;43.46
52249;BME280;38541;48.130;8.378;2022-09-21T14:40:50;93272.03;;;17.01;42.37
52249;BME280;38541;48.130;8.378;2022-09-21T14:43:26;93270.34;;;17.57;41.91
52249;BME280;38541;48.130;8.378;2022-09-21T14:49:12;93272.94;;;18.46;39.21
52249;BME280;38541;48.130;8.378;2022-09-21T14:51:58;93269.22;;;17.91;40.13
52249;BME280;38541;48.130;8.378;2022-09-21T15:00:55;93271.66;;;17.74;40.23
52249;BME280;38541;48.130;8.378;2022-09-21T15:03:57;93267.66;;;18.32;38.94
52249;BME280;38541;48.130;8.378;2022-09-21T15:09:23;93259.00;;;18.77;37.73
52249;BME280;38541;48.130;8.378;2022-09-21T15:12:18;93255.25;;;19.15;36.55
52249;BME280;38541;48.130;8.378;2022-09-21T15:15:25;93256.00;;;19.38;36.37
52249;BME280;38541;48.130;8.378;2022-09-21T15:17:58;93255.59;;;19.45;35.76
52249;BME280;38541;48.130;8.378;2022-09-21T15:20:30;93256.00;;;19.38;36.28
52249;BME280;38541;48.130;8.378;2022-09-21T15:22:58;93263.50;;;18.91;36.17
52249;BME280;38541;48.130;8.378;2022-09-21T15:25:28;93268.19;;;19.08;37.58
52249;BME280;38541;48.130;8.378;2022-09-21T15:27:55;93260.97;;;18.86;37.27
52249;BME280;38541;48.130;8.378;2022-09-21T15:30:24;93264.09;;;19.56;36.92